sensor_id;sensor_type;location;lat;lon;timestamp;temperature;humidity
15949;DHT22;14848;50.954;6.642;2022-07-31T00:00:35;20.90;99.90
15949;DHT22;14848;50.954;6.642;2022-07-31T00:03:00;20.90;99.90
15949;DHT22;14848;50.954;6.642;2022-07-31T00:05:26;20.90;99.90
15949;DHT22;14848;50.954;6.642;2022-07-31T00:07:52;20.90;99.90
15949;DHT22;14848;50.954;6.642;2022-07-31T00:10:18;20.80;99.90
15949;DHT22;14848;50.954;6.642;2022-07-31T00:12:44;20.80;99.90
15949;DHT22;14848;50.954;6.642;2022-07-31T00:15:10;20.70;99.90
15949;DHT22;14848;50.954;6.642;2022-07-31T00:17:38;20.70;99.90
15949;DHT22;14848;50.954;6.642;2022-07-31T00:20:04;20.60;99.90
15949;DHT22;14848;50.954;6.642;2022-07-31T00:22:29;20.60;99.90
15949;DHT22;14848;50.954;6.642;2022-07-31T00:24:55;20.60;99.90
15949;DHT22;14848;50.954;6.642;2022-07-31T00:27:21;20.50;99.90
15949;DHT22;14848;50.954;6.642;2022-07-31T00:29:48;20.50;99.90
15949;DHT22;14848;50.954;6.642;2022-07-31T00:32:14;20.50;99.90
15949;DHT22;14848;50.954;6.642;2022-07-31T00:34:40;20.50;99.90
15949;DHT22;14848;50.954;6.642;2022-07-31T00:37:09;20.40;99.90
15949;DHT22;14848;50.954;6.642;2022-07-31T00:39:35;20.40;99.90
15949;DHT22;14848;50.954;6.642;2022-07-31T00:42:01;20.40;99.90
15949;DHT22;14848;50.954;6.642;2022-07-31T00:44:26;20.40;99.90
15949;DHT22;14848;50.954;6.642;2022-07-31T00:46:52;20.40;99.90
15949;DHT22;14848;50.954;6.642;2022-07-31T00:49:18;20.40;99.90
15949;DHT22;14848;50.954;6.642;2022-07-31T00:51:44;20.30;99.90
15949;DHT22;14848;50.954;6.642;2022-07-31T00:54:09;20.20;99.90
15949;DHT22;14848;50.954;6.642;2022-07-31T00:56:36;20.20;99.90
15949;DHT22;14848;50.954;6.642;2022-07-31T00:59:01;20.10;99.90
15949;DHT22;14848;50.954;6.642;2022-07-31T01:01:28;20.00;99.90
15949;DHT22;14848;50.954;6.642;2022-07-31T01:03:55;20.00;99.90
15949;DHT22;14848;50.954;6.642;2022-07-31T01:06:20;20.00;99.90
15949;DHT22;14848;50.954;6.642;2022-07-31T01:08:46;19.90;99.90
15949;DHT22;14848;50.954;6.642;2022-07-31T01:13:47;19.90;99.90
15949;DHT22;14848;50.954;6.642;2022-07-31T01:16:14;19.80;99.90
15949;DHT22;14848;50.954;6.642;2022-07-31T01:18:41;19.80;99.90
15949;DHT22;14848;50.954;6.642;2022-07-31T01:21:12;19.70;99.90
15949;DHT22;14848;50.954;6.642;2022-07-31T01:26:57;19.60;99.90
15949;DHT22;14848;50.954;6.642;2022-07-31T01:29:28;19.60;99.90
15949;DHT22;14848;50.954;6.642;2022-07-31T01:32:05;20.10;99.90
15949;DHT22;14848;50.954;6.642;2022-07-31T01:34:39;19.60;99.90
15949;DHT22;14848;50.954;6.642;2022-07-31T01:37:13;19.60;99.90
15949;DHT22;14848;50.954;6.642;2022-07-31T01:39:44;19.50;99.90
15949;DHT22;14848;50.954;6.642;2022-07-31T01:42:13;19.60;99.90
15949;DHT22;14848;50.954;6.642;2022-07-31T01:44:45;19.50;99.90
15949;DHT22;14848;50.954;6.642;2022-07-31T01:47:16;19.50;99.90
15949;DHT22;14848;50.954;6.642;2022-07-31T01:49:45;19.50;99.90
15949;DHT22;14848;50.954;6.642;2022-07-31T01:52:12;19.40;99.90
15949;DHT22;14848;50.954;6.642;2022-07-31T01:54:39;19.40;99.90
15949;DHT22;14848;50.954;6.642;2022-07-31T01:57:06;19.30;99.90
15949;DHT22;14848;50.954;6.642;2022-07-31T01:59:34;19.30;99.90
15949;DHT22;14848;50.954;6.642;2022-07-31T02:02:01;19.30;99.90
15949;DHT22;14848;50.954;6.642;2022-07-31T02:04:30;19.30;99.90
15949;DHT22;14848;50.954;6.642;2022-07-31T02:06:57;19.30;99.90
15949;DHT22;14848;50.954;6.642;2022-07-31T02:09:24;19.30;99.90
15949;DHT22;14848;50.954;6.642;2022-07-31T02:11:51;19.30;99.90
15949;DHT22;14848;50.954;6.642;2022-07-31T02:14:18;19.30;99.90
15949;DHT22;14848;50.954;6.642;2022-07-31T02:16:46;19.30;99.90
15949;DHT22;14848;50.954;6.642;2022-07-31T02:19:13;19.30;99.90
15949;DHT22;14848;50.954;6.642;2022-07-31T02:21:40;19.20;99.90
15949;DHT22;14848;50.954;6.642;2022-07-31T02:24:06;19.20;99.90
15949;DHT22;14848;50.954;6.642;2022-07-31T02:26:33;19.20;99.90
15949;DHT22;14848;50.954;6.642;2022-07-31T02:29:00;19.10;99.90
15949;DHT22;14848;50.954;6.642;2022-07-31T02:31:30;19.10;99.90
15949;DHT22;14848;50.954;6.642;2022-07-31T02:33:56;19.00;99.90
15949;DHT22;14848;50.954;6.642;2022-07-31T02:36:22;19.10;99.90
15949;DHT22;14848;50.954;6.642;2022-07-31T02:38:49;19.00;99.90
15949;DHT22;14848;50.954;6.642;2022-07-31T02:41:16;19.00;99.90
15949;DHT22;14848;50.954;6.642;2022-07-31T02:43:43;19.00;99.90
15949;DHT22;14848;50.954;6.642;2022-07-31T02:46:10;19.00;99.90
15949;DHT22;14848;50.954;6.642;2022-07-31T02:48:37;19.00;99.90
15949;DHT22;14848;50.954;6.642;2022-07-31T02:51:03;19.00;99.90
15949;DHT22;14848;50.954;6.642;2022-07-31T02:53:29;19.00;99.90
15949;DHT22;14848;50.954;6.642;2022-07-31T02:55:55;19.00;99.90
15949;DHT22;14848;50.954;6.642;2022-07-31T02:58:21;19.00;99.90
15949;DHT22;14848;50.954;6.642;2022-07-31T03:00:57;19.00;99.90
15949;DHT22;14848;50.954;6.642;2022-07-31T03:03:23;19.00;99.90
15949;DHT22;14848;50.954;6.642;2022-07-31T03:05:48;19.00;99.90
15949;DHT22;14848;50.954;6.642;2022-07-31T03:08:14;19.00;99.90
15949;DHT22;14848;50.954;6.642;2022-07-31T03:10:40;19.00;99.90
15949;DHT22;14848;50.954;6.642;2022-07-31T03:13:05;19.00;99.90
15949;DHT22;14848;50.954;6.642;2022-07-31T03:15:32;19.10;99.90
15949;DHT22;14848;50.954;6.642;2022-07-31T03:17:58;19.10;99.90
15949;DHT22;14848;50.954;6.642;2022-07-31T03:20:26;19.10;99.90
15949;DHT22;14848;50.954;6.642;2022-07-31T03:22:53;19.10;99.90
15949;DHT22;14848;50.954;6.642;2022-07-31T03:25:19;19.10;99.90
15949;DHT22;14848;50.954;6.642;2022-07-31T03:27:46;19.10;99.90
15949;DHT22;14848;50.954;6.642;2022-07-31T03:30:16;19.10;99.90
15949;DHT22;14848;50.954;6.642;2022-07-31T03:32:43;19.10;99.90
15949;DHT22;14848;50.954;6.642;2022-07-31T03:35:09;19.00;99.90
15949;DHT22;14848;50.954;6.642;2022-07-31T03:37:35;19.00;99.90
15949;DHT22;14848;50.954;6.642;2022-07-31T03:40:01;19.00;99.90
15949;DHT22;14848;50.954;6.642;2022-07-31T03:42:27;19.00;99.90
15949;DHT22;14848;50.954;6.642;2022-07-31T03:44:54;19.00;99.90
15949;DHT22;14848;50.954;6.642;2022-07-31T03:47:20;19.10;99.90
15949;DHT22;14848;50.954;6.642;2022-07-31T03:49:46;19.10;99.90
15949;DHT22;14848;50.954;6.642;2022-07-31T03:52:13;19.10;99.90
15949;DHT22;14848;50.954;6.642;2022-07-31T03:54:39;19.10;99.90
15949;DHT22;14848;50.954;6.642;2022-07-31T03:57:07;19.20;99.90
15949;DHT22;14848;50.954;6.642;2022-07-31T03:59:34;19.30;99.90
15949;DHT22;14848;50.954;6.642;2022-07-31T04:02:01;19.30;99.90
15949;DHT22;14848;50.954;6.642;2022-07-31T04:04:27;19.30;99.90
15949;DHT22;14848;50.954;6.642;2022-07-31T04:06:52;19.40;99.90
15949;DHT22;14848;50.954;6.642;2022-07-31T04:09:18;19.40;99.90
15949;DHT22;14848;50.954;6.642;2022-07-31T04:11:45;19.40;99.90
15949;DHT22;14848;50.954;6.642;2022-07-31T04:14:10;19.50;99.90
15949;DHT22;14848;50.954;6.642;2022-07-31T04:16:36;19.50;99.90
15949;DHT22;14848;50.954;6.642;2022-07-31T04:19:02;19.60;99.90
15949;DHT22;14848;50.954;6.642;2022-07-31T04:21:28;19.60;99.90
15949;DHT22;14848;50.954;6.642;2022-07-31T04:23:53;19.70;99.90
15949;DHT22;14848;50.954;6.642;2022-07-31T04:26:19;19.70;99.90
15949;DHT22;14848;50.954;6.642;2022-07-31T04:28:45;19.70;99.90
15949;DHT22;14848;50.954;6.642;2022-07-31T04:31:11;19.90;99.90
15949;DHT22;14848;50.954;6.642;2022-07-31T04:33:36;19.90;99.90
15949;DHT22;14848;50.954;6.642;2022-07-31T04:36:02;19.90;99.90
15949;DHT22;14848;50.954;6.642;2022-07-31T04:38:28;20.00;99.90
15949;DHT22;14848;50.954;6.642;2022-07-31T04:40:54;20.00;99.90
15949;DHT22;14848;50.954;6.642;2022-07-31T04:43:19;20.00;99.90
15949;DHT22;14848;50.954;6.642;2022-07-31T04:45:45;20.10;99.90
15949;DHT22;14848;50.954;6.642;2022-07-31T04:48:11;20.10;99.90
15949;DHT22;14848;50.954;6.642;2022-07-31T04:50:36;20.10;99.90
15949;DHT22;14848;50.954;6.642;2022-07-31T04:53:03;20.10;99.90
15949;DHT22;14848;50.954;6.642;2022-07-31T04:55:28;20.10;99.90
15949;DHT22;14848;50.954;6.642;2022-07-31T04:57:54;20.20;99.90
15949;DHT22;14848;50.954;6.642;2022-07-31T05:00:20;20.20;99.90
15949;DHT22;14848;50.954;6.642;2022-07-31T05:02:46;20.20;99.90
15949;DHT22;14848;50.954;6.642;2022-07-31T05:05:11;20.20;99.90
15949;DHT22;14848;50.954;6.642;2022-07-31T05:07:37;20.30;99.90
15949;DHT22;14848;50.954;6.642;2022-07-31T05:10:04;20.40;99.90
15949;DHT22;14848;50.954;6.642;2022-07-31T05:12:30;20.40;99.90
15949;DHT22;14848;50.954;6.642;2022-07-31T05:14:55;20.50;99.90
15949;DHT22;14848;50.954;6.642;2022-07-31T05:17:21;20.50;99.90
15949;DHT22;14848;50.954;6.642;2022-07-31T05:19:46;20.60;99.90
15949;DHT22;14848;50.954;6.642;2022-07-31T05:22:12;20.60;99.90
15949;DHT22;14848;50.954;6.642;2022-07-31T05:24:38;20.70;99.90
15949;DHT22;14848;50.954;6.642;2022-07-31T05:27:04;20.70;99.90
15949;DHT22;14848;50.954;6.642;2022-07-31T05:29:31;20.80;99.90
15949;DHT22;14848;50.954;6.642;2022-07-31T05:31:58;20.80;99.90
15949;DHT22;14848;50.954;6.642;2022-07-31T05:34:24;20.90;99.90
15949;DHT22;14848;50.954;6.642;2022-07-31T05:36:49;21.00;99.90
15949;DHT22;14848;50.954;6.642;2022-07-31T05:39:15;21.00;99.90
15949;DHT22;14848;50.954;6.642;2022-07-31T05:41:44;21.00;99.90
15949;DHT22;14848;50.954;6.642;2022-07-31T05:44:10;21.00;99.90
15949;DHT22;14848;50.954;6.642;2022-07-31T05:46:35;21.00;99.90
15949;DHT22;14848;50.954;6.642;2022-07-31T05:49:02;20.90;99.90
15949;DHT22;14848;50.954;6.642;2022-07-31T05:51:28;20.90;99.90
15949;DHT22;14848;50.954;6.642;2022-07-31T05:53:54;21.00;99.90
15949;DHT22;14848;50.954;6.642;2022-07-31T05:56:20;21.20;99.90
15949;DHT22;14848;50.954;6.642;2022-07-31T05:58:47;21.20;99.90
15949;DHT22;14848;50.954;6.642;2022-07-31T06:01:13;21.40;99.90
15949;DHT22;14848;50.954;6.642;2022-07-31T06:03:38;21.50;99.90
15949;DHT22;14848;50.954;6.642;2022-07-31T06:06:05;21.60;99.90
15949;DHT22;14848;50.954;6.642;2022-07-31T06:08:30;21.70;99.90
15949;DHT22;14848;50.954;6.642;2022-07-31T06:10:56;21.70;99.90
15949;DHT22;14848;50.954;6.642;2022-07-31T06:13:23;21.80;99.90
15949;DHT22;14848;50.954;6.642;2022-07-31T06:15:49;22.00;99.90
15949;DHT22;14848;50.954;6.642;2022-07-31T06:18:14;22.00;99.90
15949;DHT22;14848;50.954;6.642;2022-07-31T06:20:40;22.20;99.90
15949;DHT22;14848;50.954;6.642;2022-07-31T06:23:06;22.20;99.90
15949;DHT22;14848;50.954;6.642;2022-07-31T06:25:31;22.20;99.90
15949;DHT22;14848;50.954;6.642;2022-07-31T06:27:57;22.20;99.90
15949;DHT22;14848;50.954;6.642;2022-07-31T06:30:23;22.10;99.90
15949;DHT22;14848;50.954;6.642;2022-07-31T06:32:49;22.10;99.90
15949;DHT22;14848;50.954;6.642;2022-07-31T06:35:14;21.90;99.90
15949;DHT22;14848;50.954;6.642;2022-07-31T06:37:40;21.80;99.90
15949;DHT22;14848;50.954;6.642;2022-07-31T06:40:06;21.80;99.90
15949;DHT22;14848;50.954;6.642;2022-07-31T06:42:32;21.80;99.90
15949;DHT22;14848;50.954;6.642;2022-07-31T06:44:58;21.70;99.90
15949;DHT22;14848;50.954;6.642;2022-07-31T06:47:24;21.60;99.90
15949;DHT22;14848;50.954;6.642;2022-07-31T06:49:51;21.40;99.90
15949;DHT22;14848;50.954;6.642;2022-07-31T06:52:17;21.40;99.90
15949;DHT22;14848;50.954;6.642;2022-07-31T06:54:43;21.40;99.90
15949;DHT22;14848;50.954;6.642;2022-07-31T06:57:12;21.30;99.90
15949;DHT22;14848;50.954;6.642;2022-07-31T06:59:38;21.20;99.90
15949;DHT22;14848;50.954;6.642;2022-07-31T07:02:04;21.00;99.90
15949;DHT22;14848;50.954;6.642;2022-07-31T07:04:30;21.00;99.90
15949;DHT22;14848;50.954;6.642;2022-07-31T07:06:55;20.90;99.90
15949;DHT22;14848;50.954;6.642;2022-07-31T07:09:21;20.90;99.90
15949;DHT22;14848;50.954;6.642;2022-07-31T07:11:47;20.80;99.90
15949;DHT22;14848;50.954;6.642;2022-07-31T07:14:13;20.80;99.90
15949;DHT22;14848;50.954;6.642;2022-07-31T07:16:39;20.90;99.90
15949;DHT22;14848;50.954;6.642;2022-07-31T07:19:05;20.80;99.90
15949;DHT22;14848;50.954;6.642;2022-07-31T07:21:30;20.80;99.90
15949;DHT22;14848;50.954;6.642;2022-07-31T07:23:56;20.70;99.90
15949;DHT22;14848;50.954;6.642;2022-07-31T07:26:22;20.70;99.90
15949;DHT22;14848;50.954;6.642;2022-07-31T07:28:48;20.70;99.90
15949;DHT22;14848;50.954;6.642;2022-07-31T07:31:13;20.60;99.90
15949;DHT22;14848;50.954;6.642;2022-07-31T07:33:39;20.60;99.90
15949;DHT22;14848;50.954;6.642;2022-07-31T07:36:05;20.80;99.90
15949;DHT22;14848;50.954;6.642;2022-07-31T07:38:30;20.90;99.90
15949;DHT22;14848;50.954;6.642;2022-07-31T07:40:56;21.10;99.90
15949;DHT22;14848;50.954;6.642;2022-07-31T07:43:22;21.30;99.90
15949;DHT22;14848;50.954;6.642;2022-07-31T07:45:47;21.50;99.90
15949;DHT22;14848;50.954;6.642;2022-07-31T07:48:13;21.80;99.90
15949;DHT22;14848;50.954;6.642;2022-07-31T07:50:39;22.20;99.90
15949;DHT22;14848;50.954;6.642;2022-07-31T07:53:05;22.60;99.90
15949;DHT22;14848;50.954;6.642;2022-07-31T07:55:30;22.80;99.90
15949;DHT22;14848;50.954;6.642;2022-07-31T07:57:56;23.00;99.90
15949;DHT22;14848;50.954;6.642;2022-07-31T08:00:22;23.20;99.90
15949;DHT22;14848;50.954;6.642;2022-07-31T08:02:47;23.20;99.90
15949;DHT22;14848;50.954;6.642;2022-07-31T08:05:14;23.30;99.90
15949;DHT22;14848;50.954;6.642;2022-07-31T08:07:40;23.50;99.90
15949;DHT22;14848;50.954;6.642;2022-07-31T08:10:07;23.80;99.90
15949;DHT22;14848;50.954;6.642;2022-07-31T08:12:33;24.00;99.90
15949;DHT22;14848;50.954;6.642;2022-07-31T08:14:59;24.20;99.90
15949;DHT22;14848;50.954;6.642;2022-07-31T08:17:25;24.20;99.90
15949;DHT22;14848;50.954;6.642;2022-07-31T08:19:51;24.10;99.90
15949;DHT22;14848;50.954;6.642;2022-07-31T08:22:17;23.90;99.90
15949;DHT22;14848;50.954;6.642;2022-07-31T08:24:42;24.10;99.90
15949;DHT22;14848;50.954;6.642;2022-07-31T08:27:08;24.10;99.90
15949;DHT22;14848;50.954;6.642;2022-07-31T08:29:50;24.10;99.90
15949;DHT22;14848;50.954;6.642;2022-07-31T08:32:15;24.10;99.90
15949;DHT22;14848;50.954;6.642;2022-07-31T08:34:42;24.20;99.90
15949;DHT22;14848;50.954;6.642;2022-07-31T08:37:08;24.40;99.90
15949;DHT22;14848;50.954;6.642;2022-07-31T08:39:34;24.70;99.90
15949;DHT22;14848;50.954;6.642;2022-07-31T08:42:07;24.80;99.90
15949;DHT22;14848;50.954;6.642;2022-07-31T08:44:37;25.00;99.90
15949;DHT22;14848;50.954;6.642;2022-07-31T08:47:12;24.80;99.90
15949;DHT22;14848;50.954;6.642;2022-07-31T08:49:46;24.50;99.90
15949;DHT22;14848;50.954;6.642;2022-07-31T08:52:18;24.10;99.90
15949;DHT22;14848;50.954;6.642;2022-07-31T08:54:45;23.90;99.90
15949;DHT22;14848;50.954;6.642;2022-07-31T08:57:12;23.70;99.90
15949;DHT22;14848;50.954;6.642;2022-07-31T08:59:40;23.60;99.90
15949;DHT22;14848;50.954;6.642;2022-07-31T09:02:07;23.80;99.90
15949;DHT22;14848;50.954;6.642;2022-07-31T09:04:33;23.80;99.90
15949;DHT22;14848;50.954;6.642;2022-07-31T09:06:58;23.90;99.90
15949;DHT22;14848;50.954;6.642;2022-07-31T09:09:26;23.80;99.90
15949;DHT22;14848;50.954;6.642;2022-07-31T09:11:52;24.00;99.90
15949;DHT22;14848;50.954;6.642;2022-07-31T09:14:33;24.10;99.90
15949;DHT22;14848;50.954;6.642;2022-07-31T09:17:00;23.90;99.90
15949;DHT22;14848;50.954;6.642;2022-07-31T09:19:41;24.20;99.90
15949;DHT22;14848;50.954;6.642;2022-07-31T09:22:18;24.10;99.90
15949;DHT22;14848;50.954;6.642;2022-07-31T09:24:44;24.10;99.90
15949;DHT22;14848;50.954;6.642;2022-07-31T09:27:09;24.30;99.90
15949;DHT22;14848;50.954;6.642;2022-07-31T09:29:40;24.30;99.90
15949;DHT22;14848;50.954;6.642;2022-07-31T09:34:37;24.40;99.90
15949;DHT22;14848;50.954;6.642;2022-07-31T09:39:40;24.40;99.90
15949;DHT22;14848;50.954;6.642;2022-07-31T09:42:07;24.20;99.90
15949;DHT22;14848;50.954;6.642;2022-07-31T09:44:45;24.20;99.90
15949;DHT22;14848;50.954;6.642;2022-07-31T09:47:23;24.20;99.90
15949;DHT22;14848;50.954;6.642;2022-07-31T09:49:56;24.50;99.90
15949;DHT22;14848;50.954;6.642;2022-07-31T09:52:24;24.70;99.90
15949;DHT22;14848;50.954;6.642;2022-07-31T09:57:32;25.20;99.90
15949;DHT22;14848;50.954;6.642;2022-07-31T10:00:05;25.40;99.90
15949;DHT22;14848;50.954;6.642;2022-07-31T10:04:57;25.70;99.90
15949;DHT22;14848;50.954;6.642;2022-07-31T10:09:59;25.90;99.90
15949;DHT22;14848;50.954;6.642;2022-07-31T10:12:28;25.20;99.90
15949;DHT22;14848;50.954;6.642;2022-07-31T10:14:55;25.40;99.90
15949;DHT22;14848;50.954;6.642;2022-07-31T10:17:27;25.40;99.90
15949;DHT22;14848;50.954;6.642;2022-07-31T10:19:57;25.50;99.90
15949;DHT22;14848;50.954;6.642;2022-07-31T10:22:26;25.30;99.90
15949;DHT22;14848;50.954;6.642;2022-07-31T10:25:00;25.50;99.90
15949;DHT22;14848;50.954;6.642;2022-07-31T10:27:28;25.60;99.90
15949;DHT22;14848;50.954;6.642;2022-07-31T10:29:55;25.80;99.90
15949;DHT22;14848;50.954;6.642;2022-07-31T10:32:21;25.90;99.90
15949;DHT22;14848;50.954;6.642;2022-07-31T10:34:47;26.10;99.90
15949;DHT22;14848;50.954;6.642;2022-07-31T10:37:16;26.40;99.90
15949;DHT22;14848;50.954;6.642;2022-07-31T10:47:15;26.80;99.90
15949;DHT22;14848;50.954;6.642;2022-07-31T11:44:21;27.40;99.90
15949;DHT22;14848;50.954;6.642;2022-07-31T11:46:49;27.10;99.90
15949;DHT22;14848;50.954;6.642;2022-07-31T11:51:48;27.50;99.90
15949;DHT22;14848;50.954;6.642;2022-07-31T11:54:23;27.80;99.90
15949;DHT22;14848;50.954;6.642;2022-07-31T11:56:56;27.90;99.90
15949;DHT22;14848;50.954;6.642;2022-07-31T12:04:34;27.50;99.90
15949;DHT22;14848;50.954;6.642;2022-07-31T12:07:04;27.40;99.90
15949;DHT22;14848;50.954;6.642;2022-07-31T12:09:31;27.40;99.90
15949;DHT22;14848;50.954;6.642;2022-07-31T12:11:58;27.50;99.90
15949;DHT22;14848;50.954;6.642;2022-07-31T12:14:32;27.50;99.90
15949;DHT22;14848;50.954;6.642;2022-07-31T12:21:52;27.70;99.90
15949;DHT22;14848;50.954;6.642;2022-07-31T12:24:17;28.20;99.90
15949;DHT22;14848;50.954;6.642;2022-07-31T12:26:55;27.90;99.90
15949;DHT22;14848;50.954;6.642;2022-07-31T12:29:31;27.80;99.90
15949;DHT22;14848;50.954;6.642;2022-07-31T12:31:57;27.70;99.90
15949;DHT22;14848;50.954;6.642;2022-07-31T12:34:30;27.70;99.90
15949;DHT22;14848;50.954;6.642;2022-07-31T12:39:22;27.70;99.90
15949;DHT22;14848;50.954;6.642;2022-07-31T12:41:48;27.50;99.90
15949;DHT22;14848;50.954;6.642;2022-07-31T12:44:13;27.60;99.90
15949;DHT22;14848;50.954;6.642;2022-07-31T12:46:39;27.90;99.90
15949;DHT22;14848;50.954;6.642;2022-07-31T12:49:05;28.00;99.90
15949;DHT22;14848;50.954;6.642;2022-07-31T12:51:33;28.00;99.90
15949;DHT22;14848;50.954;6.642;2022-07-31T12:54:00;28.00;99.90
15949;DHT22;14848;50.954;6.642;2022-07-31T12:56:26;27.80;99.90
15949;DHT22;14848;50.954;6.642;2022-07-31T12:58:52;27.70;99.90
15949;DHT22;14848;50.954;6.642;2022-07-31T13:01:17;27.70;99.90
15949;DHT22;14848;50.954;6.642;2022-07-31T13:03:43;27.70;99.90
15949;DHT22;14848;50.954;6.642;2022-07-31T13:06:09;27.70;99.90
15949;DHT22;14848;50.954;6.642;2022-07-31T13:08:34;27.80;99.90
15949;DHT22;14848;50.954;6.642;2022-07-31T13:11:00;27.80;99.90
15949;DHT22;14848;50.954;6.642;2022-07-31T13:13:26;27.80;99.90
15949;DHT22;14848;50.954;6.642;2022-07-31T13:15:51;27.80;99.90
15949;DHT22;14848;50.954;6.642;2022-07-31T13:18:17;27.90;99.90
15949;DHT22;14848;50.954;6.642;2022-07-31T13:20:43;27.90;99.90
15949;DHT22;14848;50.954;6.642;2022-07-31T13:23:09;27.90;99.90
15949;DHT22;14848;50.954;6.642;2022-07-31T13:25:34;27.70;99.90
15949;DHT22;14848;50.954;6.642;2022-07-31T13:28:00;27.70;99.90
15949;DHT22;14848;50.954;6.642;2022-07-31T13:30:26;27.70;99.90
15949;DHT22;14848;50.954;6.642;2022-07-31T13:32:52;27.60;99.90
15949;DHT22;14848;50.954;6.642;2022-07-31T13:35:19;27.60;99.90
15949;DHT22;14848;50.954;6.642;2022-07-31T13:37:46;27.70;99.90
15949;DHT22;14848;50.954;6.642;2022-07-31T13:42:38;27.70;99.90
15949;DHT22;14848;50.954;6.642;2022-07-31T13:45:04;27.40;99.90
15949;DHT22;14848;50.954;6.642;2022-07-31T13:47:30;27.20;99.90
15949;DHT22;14848;50.954;6.642;2022-07-31T13:49:55;27.20;99.90
15949;DHT22;14848;50.954;6.642;2022-07-31T13:52:21;27.30;99.90
15949;DHT22;14848;50.954;6.642;2022-07-31T13:54:47;27.30;99.90
15949;DHT22;14848;50.954;6.642;2022-07-31T13:57:12;27.30;99.90
15949;DHT22;14848;50.954;6.642;2022-07-31T13:59:39;27.40;99.90
15949;DHT22;14848;50.954;6.642;2022-07-31T14:02:06;27.80;99.90
15949;DHT22;14848;50.954;6.642;2022-07-31T14:09:24;28.00;99.90
15949;DHT22;14848;50.954;6.642;2022-07-31T14:11:49;27.80;99.90
15949;DHT22;14848;50.954;6.642;2022-07-31T14:14:15;27.90;99.90
15949;DHT22;14848;50.954;6.642;2022-07-31T14:16:40;28.00;99.90
15949;DHT22;14848;50.954;6.642;2022-07-31T14:19:07;28.10;99.90
15949;DHT22;14848;50.954;6.642;2022-07-31T14:21:33;28.10;99.90
15949;DHT22;14848;50.954;6.642;2022-07-31T14:23:59;27.90;99.90
15949;DHT22;14848;50.954;6.642;2022-07-31T14:26:24;27.90;99.90
15949;DHT22;14848;50.954;6.642;2022-07-31T14:28:50;27.80;99.90
15949;DHT22;14848;50.954;6.642;2022-07-31T14:31:16;27.70;99.90
15949;DHT22;14848;50.954;6.642;2022-07-31T14:33:42;27.70;99.90
15949;DHT22;14848;50.954;6.642;2022-07-31T14:36:07;27.90;99.90
15949;DHT22;14848;50.954;6.642;2022-07-31T14:38:33;27.80;99.90
15949;DHT22;14848;50.954;6.642;2022-07-31T14:41:01;28.10;99.90
15949;DHT22;14848;50.954;6.642;2022-07-31T14:45:54;28.20;99.90
15949;DHT22;14848;50.954;6.642;2022-07-31T14:48:20;28.10;99.90
15949;DHT22;14848;50.954;6.642;2022-07-31T14:50:46;27.90;99.90
15949;DHT22;14848;50.954;6.642;2022-07-31T14:53:12;27.90;99.90
15949;DHT22;14848;50.954;6.642;2022-07-31T14:55:37;27.90;99.90
15949;DHT22;14848;50.954;6.642;2022-07-31T14:58:03;27.80;99.90
15949;DHT22;14848;50.954;6.642;2022-07-31T15:00:29;27.80;99.90
15949;DHT22;14848;50.954;6.642;2022-07-31T15:02:55;27.80;99.90
15949;DHT22;14848;50.954;6.642;2022-07-31T15:05:20;27.80;99.90
15949;DHT22;14848;50.954;6.642;2022-07-31T15:07:46;27.80;99.90
15949;DHT22;14848;50.954;6.642;2022-07-31T15:10:13;27.70;99.90
15949;DHT22;14848;50.954;6.642;2022-07-31T15:12:38;27.80;99.90
15949;DHT22;14848;50.954;6.642;2022-07-31T15:15:06;27.70;99.90
15949;DHT22;14848;50.954;6.642;2022-07-31T15:17:31;27.50;99.90
15949;DHT22;14848;50.954;6.642;2022-07-31T15:19:57;27.30;99.90
15949;DHT22;14848;50.954;6.642;2022-07-31T15:22:23;27.20;99.90
15949;DHT22;14848;50.954;6.642;2022-07-31T15:24:49;27.30;99.90
15949;DHT22;14848;50.954;6.642;2022-07-31T15:27:14;27.40;99.90
15949;DHT22;14848;50.954;6.642;2022-07-31T15:29:40;27.50;99.90
15949;DHT22;14848;50.954;6.642;2022-07-31T15:32:07;27.60;99.90
15949;DHT22;14848;50.954;6.642;2022-07-31T15:34:32;27.80;99.90
15949;DHT22;14848;50.954;6.642;2022-07-31T15:37:00;27.90;99.90
15949;DHT22;14848;50.954;6.642;2022-07-31T15:39:26;28.10;99.90
15949;DHT22;14848;50.954;6.642;2022-07-31T15:41:52;27.80;99.90
15949;DHT22;14848;50.954;6.642;2022-07-31T15:44:18;27.60;99.90
15949;DHT22;14848;50.954;6.642;2022-07-31T15:46:43;27.60;99.90
15949;DHT22;14848;50.954;6.642;2022-07-31T15:49:09;27.80;99.90
15949;DHT22;14848;50.954;6.642;2022-07-31T15:51:35;27.80;99.90
15949;DHT22;14848;50.954;6.642;2022-07-31T15:54:00;27.70;99.90
15949;DHT22;14848;50.954;6.642;2022-07-31T15:56:26;28.00;99.90
15949;DHT22;14848;50.954;6.642;2022-07-31T15:58:51;27.50;99.90
15949;DHT22;14848;50.954;6.642;2022-07-31T16:01:17;27.40;99.90
15949;DHT22;14848;50.954;6.642;2022-07-31T16:03:43;27.20;99.90
15949;DHT22;14848;50.954;6.642;2022-07-31T16:06:09;27.20;99.90
15949;DHT22;14848;50.954;6.642;2022-07-31T16:08:34;27.20;99.90
15949;DHT22;14848;50.954;6.642;2022-07-31T16:11:00;27.10;99.90
15949;DHT22;14848;50.954;6.642;2022-07-31T16:13:26;27.00;99.90
15949;DHT22;14848;50.954;6.642;2022-07-31T16:15:52;27.10;99.90
15949;DHT22;14848;50.954;6.642;2022-07-31T16:18:18;27.10;99.90
15949;DHT22;14848;50.954;6.642;2022-07-31T16:20:44;27.10;99.90
15949;DHT22;14848;50.954;6.642;2022-07-31T16:23:10;26.80;99.90
15949;DHT22;14848;50.954;6.642;2022-07-31T16:25:36;26.60;99.90
15949;DHT22;14848;50.954;6.642;2022-07-31T16:28:03;26.70;99.90
15949;DHT22;14848;50.954;6.642;2022-07-31T16:30:29;26.70;99.90
15949;DHT22;14848;50.954;6.642;2022-07-31T16:32:55;27.00;99.90
15949;DHT22;14848;50.954;6.642;2022-07-31T16:35:20;27.10;99.90
15949;DHT22;14848;50.954;6.642;2022-07-31T16:37:46;27.00;99.90
15949;DHT22;14848;50.954;6.642;2022-07-31T16:40:12;27.00;99.90
15949;DHT22;14848;50.954;6.642;2022-07-31T16:42:38;27.20;99.90
15949;DHT22;14848;50.954;6.642;2022-07-31T16:45:04;27.30;99.90
15949;DHT22;14848;50.954;6.642;2022-07-31T16:47:30;27.40;99.90
15949;DHT22;14848;50.954;6.642;2022-07-31T16:49:56;27.60;99.90
15949;DHT22;14848;50.954;6.642;2022-07-31T16:52:22;27.80;99.90
15949;DHT22;14848;50.954;6.642;2022-07-31T16:54:47;27.90;99.90
15949;DHT22;14848;50.954;6.642;2022-07-31T16:57:13;27.90;99.90
15949;DHT22;14848;50.954;6.642;2022-07-31T16:59:39;27.90;99.90
15949;DHT22;14848;50.954;6.642;2022-07-31T17:02:05;27.80;99.90
15949;DHT22;14848;50.954;6.642;2022-07-31T17:04:32;27.50;99.90
15949;DHT22;14848;50.954;6.642;2022-07-31T17:06:58;27.30;99.90
15949;DHT22;14848;50.954;6.642;2022-07-31T17:09:23;27.00;99.90
15949;DHT22;14848;50.954;6.642;2022-07-31T17:11:52;26.70;99.90